Weather reports worldwide

Advertisment
Cardiff, Bute Park, United Kingdom (99160): temperature & dewpoint: 18.01.2020 01:00:00 - 24.01.2020 01:00:00 (GMT)Cardiff, Bute Park, United Kingdom (99160): temperature -20cm & temperature -100cm: 18.01.2020 01:00:00 - 24.01.2020 01:00:00 (GMT)Cardiff, Bute Park, United Kingdom (99160): precipitation: 18.01.2020 01:00:00 - 24.01.2020 01:00:00 (GMT)
Date & Time tt [°C] td [°C] tt -20cm [°C] tt -100cm [°C] rr [mm]
24.01.2020 01:00:00 6,0 5,2 - - 0,0
24.01.2020 00:00:00 6,0 5,4 - - 0,0
23.01.2020 23:00:00 6,2 5,5 - - 0,0
23.01.2020 22:00:00 6,3 5,2 - - 0,0
23.01.2020 21:00:00 6,3 5,2 - - 0,0
23.01.2020 20:00:00 6,4 5,3 - - 0,0
23.01.2020 19:00:00 6,6 5,5 - - 0,0
23.01.2020 18:00:00 6,8 5,3 - - 0,0
23.01.2020 17:00:00 6,8 5,4 - - 0,0
23.01.2020 16:00:00 6,9 5,4 - - 0,0
23.01.2020 15:00:00 7,0 5,3 - - 0,0
23.01.2020 14:00:00 7,1 5,2 - - 0,0
23.01.2020 13:00:00 7,2 5,5 - - 0,0
23.01.2020 12:00:00 7,0 5,7 - - 0,0
23.01.2020 11:00:00 7,1 5,8 - - 0,0
23.01.2020 10:00:00 6,8 5,9 - - 0,0
23.01.2020 09:00:00 6,8 5,9 5,2 7,2 0,0
23.01.2020 08:00:00 6,9 6,2 - - 0,0
23.01.2020 07:00:00 6,8 6,3 - - 0,2
23.01.2020 06:00:00 6,9 6,3 - - 0,0
23.01.2020 05:00:00 7,1 6,3 - - 0,0
23.01.2020 04:00:00 7,2 6,6 - - 0,0
23.01.2020 03:00:00 7,1 6,7 - - 0,0
23.01.2020 02:00:00 7,2 6,7 - - 0,0
23.01.2020 01:00:00 7,4 6,8 - - 0,0
23.01.2020 00:00:00 7,9 7,4 - - 0,0
22.01.2020 23:00:00 8,1 7,5 - - 0,0
22.01.2020 22:00:00 8,2 7,6 - - 0,0
22.01.2020 21:00:00 8,3 7,7 - - 0,0
22.01.2020 20:00:00 8,4 7,6 - - 0,0
22.01.2020 19:00:00 8,4 7,5 - - 0,0
22.01.2020 18:00:00 8,3 7,3 - - 0,0
22.01.2020 17:00:00 8,3 7,3 - - 0,0
22.01.2020 16:00:00 8,2 7,3 - - 0,0
22.01.2020 15:00:00 8,1 7,5 - - 0,0
22.01.2020 14:00:00 8,0 7,4 - - 0,0
22.01.2020 13:00:00 8,5 8,2 - - 0,0
22.01.2020 12:00:00 7,4 7,1 - - 0,0
22.01.2020 11:00:00 7,0 6,7 - - 0,0
22.01.2020 10:00:00 5,6 5,6 - - 0,0
22.01.2020 09:00:00 4,8 4,8 4,5 7,5 0,0
22.01.2020 08:00:00 4,6 4,5 - - 0,0
22.01.2020 07:00:00 4,2 4,1 - - 0,0
22.01.2020 06:00:00 4,4 4,3 - - 0,0
22.01.2020 05:00:00 4,1 4,1 - - 0,0
22.01.2020 04:00:00 4,0 4,0 - - 0,2
22.01.2020 03:00:00 3,5 3,5 - - 0,0
22.01.2020 02:00:00 2,9 2,9 - - 0,0
22.01.2020 01:00:00 2,7 2,6 - - 0,0
22.01.2020 00:00:00 2,1 2,1 - - 0,0
21.01.2020 23:00:00 1,6 1,5 - - 0,0
21.01.2020 22:00:00 0,8 0,8 - - 0,0
21.01.2020 21:00:00 -0,7 -1,1 - - 0,0
21.01.2020 20:00:00 -0,3 -0,7 - - 0,0
21.01.2020 19:00:00 0,4 -0,2 - - 0,0
21.01.2020 18:00:00 1,5 0,6 - - 0,0
21.01.2020 17:00:00 3,4 1,3 - - 0,0
21.01.2020 16:00:00 6,3 2,8 - - 0,0
21.01.2020 15:00:00 8,0 3,0 - - 0,0
21.01.2020 14:00:00 8,5 2,4 - - 0,0
21.01.2020 13:00:00 8,0 2,8 - - 0,0
21.01.2020 12:00:00 5,6 4,3 - - 0,0
21.01.2020 11:00:00 2,0 2,0 - - 0,0
21.01.2020 10:00:00 -0,7 -0,7 - - 0,0
21.01.2020 09:00:00 -1,7 -1,8 4,7 7,7 0,0
21.01.2020 08:00:00 -2,9 -3,2 - - 0,0
21.01.2020 07:00:00 -2,6 -2,9 - - 0,0
21.01.2020 06:00:00 -2,4 -2,6 - - 0,0
21.01.2020 05:00:00 -2,4 -2,8 - - 0,0
21.01.2020 04:00:00 -1,9 -2,1 - - 0,0
21.01.2020 03:00:00 -2,0 -2,2 - - 0,0
21.01.2020 02:00:00 -1,6 -1,8 - - 0,0
21.01.2020 01:00:00 -1,4 -1,7 - - 0,0
21.01.2020 00:00:00 -1,0 -1,3 - - 0,0
20.01.2020 23:00:00 0,2 0,0 - - 0,0
20.01.2020 22:00:00 0,4 0,0 - - 0,0
20.01.2020 21:00:00 0,1 -0,2 - - 0,0
20.01.2020 20:00:00 0,6 0,3 - - 0,0
20.01.2020 19:00:00 1,4 0,8 - - 0,0
20.01.2020 18:00:00 2,6 1,8 - - 0,0
20.01.2020 17:00:00 4,1 2,4 - - 0,0
20.01.2020 16:00:00 6,6 3,5 - - 0,0
20.01.2020 15:00:00 8,1 3,5 - - 0,0
20.01.2020 14:00:00 7,7 4,0 - - 0,0
20.01.2020 13:00:00 6,7 3,1 - - 0,0
20.01.2020 12:00:00 6,5 3,4 - - 0,0
20.01.2020 11:00:00 3,2 2,2 - - 0,2
20.01.2020 10:00:00 -0,4 -0,5 - - 0,0
20.01.2020 09:00:00 -2,3 -2,5 5,2 8,0 0,0
20.01.2020 08:00:00 -2,6 -2,9 - - 0,0
20.01.2020 07:00:00 -2,6 -3,1 - - 0,0
20.01.2020 06:00:00 -2,2 -2,5 - - 0,0
20.01.2020 05:00:00 -2,2 -2,6 - - 0,0
20.01.2020 04:00:00 -1,9 -2,2 - - 0,0
20.01.2020 03:00:00 -1,4 -1,6 - - 0,0
20.01.2020 02:00:00 -1,5 -1,8 - - 0,0
20.01.2020 01:00:00 -0,9 -1,1 - - 0,0
20.01.2020 00:00:00 -0,4 -0,6 - - 0,0
19.01.2020 23:00:00 -0,3 -0,4 - - 0,0
19.01.2020 22:00:00 -0,5 -0,6 - - 0,0
19.01.2020 21:00:00 -0,7 -1,0 - - 0,0
19.01.2020 20:00:00 -0,5 -0,9 - - 0,0
19.01.2020 19:00:00 0,3 -0,3 - - 0,0
19.01.2020 18:00:00 1,0 -0,1 - - 0,0
19.01.2020 17:00:00 3,2 0,8 - - 0,0
19.01.2020 16:00:00 6,3 0,1 - - 0,0
19.01.2020 15:00:00 8,0 -0,9 - - 0,0
19.01.2020 14:00:00 8,1 0,6 - - 0,0
19.01.2020 13:00:00 7,5 0,4 - - 0,0
19.01.2020 12:00:00 6,5 3,4 - - 0,0
19.01.2020 11:00:00 2,5 2,5 - - 0,0
19.01.2020 10:00:00 -0,8 -0,9 - - 0,0
19.01.2020 09:00:00 -2,3 -2,6 6,2 8,2 0,0
19.01.2020 08:00:00 -2,6 -3,0 - - 0,0
19.01.2020 07:00:00 -2,5 -2,8 - - 0,0
19.01.2020 06:00:00 -2,0 -2,2 - - 0,0
19.01.2020 05:00:00 -2,0 -2,2 - - 0,0
19.01.2020 04:00:00 -1,7 -1,9 - - 0,0
19.01.2020 03:00:00 -1,8 -2,2 - - 0,0
19.01.2020 02:00:00 -1,4 -1,8 - - 0,0
19.01.2020 01:00:00 -0,9 -1,2 - - 0,0
19.01.2020 00:00:00 -0,7 -1,0 - - 0,0
18.01.2020 23:00:00 -0,8 -1,1 - - 0,0
18.01.2020 22:00:00 -0,2 -0,5 - - 0,0
18.01.2020 21:00:00 -0,2 -0,6 - - 0,0
18.01.2020 20:00:00 0,7 0,1 - - 0,0
18.01.2020 19:00:00 1,8 0,9 - - 0,0
18.01.2020 18:00:00 2,1 0,9 - - 0,0
18.01.2020 17:00:00 3,9 1,6 - - 0,0
18.01.2020 16:00:00 5,9 1,3 - - 0,0
18.01.2020 15:00:00 7,0 1,2 - - 0,0
18.01.2020 14:00:00 8,0 2,8 - - 0,0
18.01.2020 13:00:00 7,6 2,5 - - 0,0
18.01.2020 12:00:00 6,1 5,1 - - 0,0
18.01.2020 11:00:00 3,7 3,7 - - 0,2
18.01.2020 10:00:00 0,1 0,1 - - 0,0
18.01.2020 09:00:00 -0,6 -0,7 7,0 8,5 0,0
18.01.2020 08:00:00 -0,4 -0,5 - - 0,0
18.01.2020 07:00:00 -0,5 -0,6 - - 0,0
18.01.2020 06:00:00 -0,4 -0,5 - - 0,0
18.01.2020 05:00:00 -0,7 -0,9 - - 0,0
18.01.2020 04:00:00 -0,4 -0,6 - - 0,0
18.01.2020 03:00:00 0,3 0,0 - - 0,0
18.01.2020 02:00:00 1,1 0,8 - - 0,0
18.01.2020 01:00:00 1,8 1,4 - - 0,0

tt = temperature
td = dewpoint
tt -20cm = temperature -20cm
tt -100cm = temperature -100cm
rr = precipitation

Next stations